sensor_id;sensor_type;location;lat;lon;timestamp;pressure;altitude;pressure_sealevel;temperature;humidity
63493;BME280;49638;47.526;10.028;2022-07-10T00:01:51;92256.78;;;15.23;73.12
63493;BME280;49638;47.526;10.028;2022-07-10T00:04:51;92262.94;;;15.29;72.66
63493;BME280;49638;47.526;10.028;2022-07-10T00:07:52;92248.28;;;15.26;73.09
63493;BME280;49638;47.526;10.028;2022-07-10T00:10:52;92254.69;;;15.30;73.55
63493;BME280;49638;47.526;10.028;2022-07-10T00:13:52;92251.47;;;15.28;74.03
63493;BME280;49638;47.526;10.028;2022-07-10T00:16:52;92249.34;;;15.25;74.15
63493;BME280;49638;47.526;10.028;2022-07-10T00:19:53;92244.31;;;15.29;73.82
63493;BME280;49638;47.526;10.028;2022-07-10T00:22:53;92238.47;;;15.32;73.62
63493;BME280;49638;47.526;10.028;2022-07-10T00:25:53;92245.94;;;15.40;74.12
63493;BME280;49638;47.526;10.028;2022-07-10T00:28:54;92240.63;;;15.40;73.49
63493;BME280;49638;47.526;10.028;2022-07-10T00:31:55;92242.22;;;15.41;73.00
63493;BME280;49638;47.526;10.028;2022-07-10T00:34:55;92252.41;;;15.49;72.68
63493;BME280;49638;47.526;10.028;2022-07-10T00:37:55;92259.28;;;15.45;72.29
63493;BME280;49638;47.526;10.028;2022-07-10T00:40:55;92251.28;;;15.40;72.31
63493;BME280;49638;47.526;10.028;2022-07-10T00:43:58;92256.09;;;15.43;71.79
63493;BME280;49638;47.526;10.028;2022-07-10T00:46:58;92266.22;;;15.46;72.08
63493;BME280;49638;47.526;10.028;2022-07-10T00:49:58;92246.75;;;15.41;71.78
63493;BME280;49638;47.526;10.028;2022-07-10T00:52:59;92249.16;;;15.42;71.69
63493;BME280;49638;47.526;10.028;2022-07-10T00:56:00;92243.84;;;15.42;71.74
63493;BME280;49638;47.526;10.028;2022-07-10T00:59:00;92251.00;;;15.42;72.08
63493;BME280;49638;47.526;10.028;2022-07-10T01:02:02;92250.75;;;15.43;71.85
63493;BME280;49638;47.526;10.028;2022-07-10T01:05:03;92252.06;;;15.41;72.28
63493;BME280;49638;47.526;10.028;2022-07-10T01:08:04;92241.94;;;15.32;73.05
63493;BME280;49638;47.526;10.028;2022-07-10T01:11:04;92236.84;;;15.31;73.46
63493;BME280;49638;47.526;10.028;2022-07-10T01:14:05;92233.66;;;15.29;72.84
63493;BME280;49638;47.526;10.028;2022-07-10T01:17:07;92230.72;;;15.30;73.33
63493;BME280;49638;47.526;10.028;2022-07-10T01:20:09;92234.16;;;15.26;73.66
63493;BME280;49638;47.526;10.028;2022-07-10T01:23:09;92232.03;;;15.23;73.71
63493;BME280;49638;47.526;10.028;2022-07-10T01:26:09;92226.13;;;15.21;73.51
63493;BME280;49638;47.526;10.028;2022-07-10T01:29:10;92228.81;;;15.21;73.64
63493;BME280;49638;47.526;10.028;2022-07-10T01:32:11;92219.22;;;15.20;73.29
63493;BME280;49638;47.526;10.028;2022-07-10T01:35:11;92227.22;;;15.25;73.13
63493;BME280;49638;47.526;10.028;2022-07-10T01:38:12;92216.81;;;15.18;73.11
63493;BME280;49638;47.526;10.028;2022-07-10T01:41:12;92230.66;;;15.20;73.07
63493;BME280;49638;47.526;10.028;2022-07-10T01:44:12;92224.53;;;15.20;73.49
63493;BME280;49638;47.526;10.028;2022-07-10T01:47:12;92219.19;;;15.14;73.88
63493;BME280;49638;47.526;10.028;2022-07-10T01:50:13;92227.16;;;15.09;74.30
63493;BME280;49638;47.526;10.028;2022-07-10T01:53:14;92224.44;;;14.99;73.93
63493;BME280;49638;47.526;10.028;2022-07-10T01:56:15;92230.00;;;14.98;73.86
63493;BME280;49638;47.526;10.028;2022-07-10T01:59:15;92227.53;;;14.86;74.32
63493;BME280;49638;47.526;10.028;2022-07-10T02:02:15;92222.66;;;14.73;74.59
63493;BME280;49638;47.526;10.028;2022-07-10T02:05:16;92235.66;;;14.64;74.41
63493;BME280;49638;47.526;10.028;2022-07-10T02:08:16;92233.50;;;14.61;74.39
63493;BME280;49638;47.526;10.028;2022-07-10T02:11:16;92229.50;;;14.63;74.47
63493;BME280;49638;47.526;10.028;2022-07-10T02:14:16;92227.66;;;14.64;74.25
63493;BME280;49638;47.526;10.028;2022-07-10T02:17:17;92225.25;;;14.62;74.56
63493;BME280;49638;47.526;10.028;2022-07-10T02:20:17;92217.81;;;14.64;74.50
63493;BME280;49638;47.526;10.028;2022-07-10T02:23:18;92220.22;;;14.66;74.36
63493;BME280;49638;47.526;10.028;2022-07-10T02:26:18;92235.41;;;14.71;74.92
63493;BME280;49638;47.526;10.028;2022-07-10T02:29:18;92221.84;;;14.72;75.23
63493;BME280;49638;47.526;10.028;2022-07-10T02:32:19;92229.03;;;14.72;75.08
63493;BME280;49638;47.526;10.028;2022-07-10T02:35:19;92222.41;;;14.74;74.62
63493;BME280;49638;47.526;10.028;2022-07-10T02:38:20;92221.88;;;14.77;74.99
63493;BME280;49638;47.526;10.028;2022-07-10T02:41:20;92212.84;;;14.78;74.35
63493;BME280;49638;47.526;10.028;2022-07-10T02:44:20;92216.34;;;14.84;74.29
63493;BME280;49638;47.526;10.028;2022-07-10T02:47:20;92215.81;;;14.87;74.62
63493;BME280;49638;47.526;10.028;2022-07-10T02:50:21;92200.38;;;14.84;74.60
63493;BME280;49638;47.526;10.028;2022-07-10T02:53:21;92204.16;;;14.88;74.40
63493;BME280;49638;47.526;10.028;2022-07-10T02:56:21;92200.16;;;14.90;74.67
63493;BME280;49638;47.526;10.028;2022-07-10T02:59:22;92202.78;;;14.85;75.32
63493;BME280;49638;47.526;10.028;2022-07-10T03:02:22;92210.50;;;14.87;75.61
63493;BME280;49638;47.526;10.028;2022-07-10T03:05:22;92208.91;;;14.86;75.70
63493;BME280;49638;47.526;10.028;2022-07-10T03:08:23;92201.41;;;14.78;75.63
63493;BME280;49638;47.526;10.028;2022-07-10T03:11:23;92202.16;;;14.68;75.78
63493;BME280;49638;47.526;10.028;2022-07-10T03:14:23;92205.84;;;14.67;76.20
63493;BME280;49638;47.526;10.028;2022-07-10T03:17:24;92205.84;;;14.67;76.42
63493;BME280;49638;47.526;10.028;2022-07-10T03:20:24;92211.22;;;14.72;76.13
63493;BME280;49638;47.526;10.028;2022-07-10T03:23:24;92208.28;;;14.74;76.03
63493;BME280;49638;47.526;10.028;2022-07-10T03:26:25;92197.91;;;14.72;75.99
63493;BME280;49638;47.526;10.028;2022-07-10T03:29:26;92199.78;;;14.72;76.01
63493;BME280;49638;47.526;10.028;2022-07-10T03:32:27;92206.13;;;14.71;75.90
63493;BME280;49638;47.526;10.028;2022-07-10T03:35:27;92208.56;;;14.77;76.65
63493;BME280;49638;47.526;10.028;2022-07-10T03:38:27;92206.75;;;14.78;76.74
63493;BME280;49638;47.526;10.028;2022-07-10T03:41:28;92208.56;;;14.77;77.00
63493;BME280;49638;47.526;10.028;2022-07-10T03:44:28;92200.31;;;14.74;77.28
63493;BME280;49638;47.526;10.028;2022-07-10T03:47:28;92208.84;;;14.76;77.11
63493;BME280;49638;47.526;10.028;2022-07-10T03:50:29;92213.38;;;14.80;76.51
63493;BME280;49638;47.526;10.028;2022-07-10T03:53:30;92205.13;;;14.77;76.48
63493;BME280;49638;47.526;10.028;2022-07-10T03:56:30;92213.38;;;14.80;76.86
63493;BME280;49638;47.526;10.028;2022-07-10T03:59:49;92200.31;;;14.74;76.67
63493;BME280;49638;47.526;10.028;2022-07-10T04:03:00;92201.94;;;14.75;78.05
63493;BME280;49638;47.526;10.028;2022-07-10T04:06:00;92216.03;;;14.80;76.88
63493;BME280;49638;47.526;10.028;2022-07-10T04:09:00;92210.72;;;14.80;77.03
63493;BME280;49638;47.526;10.028;2022-07-10T04:12:01;92205.41;;;14.80;77.05
63493;BME280;49638;47.526;10.028;2022-07-10T04:15:01;92202.50;;;14.82;77.04
63493;BME280;49638;47.526;10.028;2022-07-10T04:18:01;92201.19;;;14.84;76.71
63493;BME280;49638;47.526;10.028;2022-07-10T04:21:02;92208.41;;;14.89;76.78
63493;BME280;49638;47.526;10.028;2022-07-10T04:24:03;92196.41;;;14.86;77.06
63493;BME280;49638;47.526;10.028;2022-07-10T04:27:04;92201.72;;;14.86;77.74
63493;BME280;49638;47.526;10.028;2022-07-10T04:30:05;92206.81;;;14.88;78.43
63493;BME280;49638;47.526;10.028;2022-07-10T04:33:06;92207.81;;;14.82;78.16
63493;BME280;49638;47.526;10.028;2022-07-10T04:36:06;92213.69;;;14.84;77.85
63493;BME280;49638;47.526;10.028;2022-07-10T04:39:06;92215.25;;;14.80;77.65
63493;BME280;49638;47.526;10.028;2022-07-10T04:42:07;92214.47;;;14.79;77.88
63493;BME280;49638;47.526;10.028;2022-07-10T04:45:08;92208.78;;;14.71;77.91
63493;BME280;49638;47.526;10.028;2022-07-10T04:48:09;92215.22;;;14.75;78.01
63493;BME280;49638;47.526;10.028;2022-07-10T04:51:09;92225.31;;;14.73;77.83
63493;BME280;49638;47.526;10.028;2022-07-10T04:54:09;92218.69;;;14.75;78.42
63493;BME280;49638;47.526;10.028;2022-07-10T04:57:09;92209.91;;;14.75;78.49
63493;BME280;49638;47.526;10.028;2022-07-10T05:00:10;92202.44;;;14.72;78.69
63493;BME280;49638;47.526;10.028;2022-07-10T05:03:11;92207.25;;;14.75;78.65
63493;BME280;49638;47.526;10.028;2022-07-10T05:06:11;92217.38;;;14.78;78.77
63493;BME280;49638;47.526;10.028;2022-07-10T05:09:11;92211.50;;;14.76;78.91
63493;BME280;49638;47.526;10.028;2022-07-10T05:12:11;92211.78;;;14.79;78.98
63493;BME280;49638;47.526;10.028;2022-07-10T05:15:12;92217.38;;;14.78;78.96
63493;BME280;49638;47.526;10.028;2022-07-10T05:18:13;92205.13;;;14.77;79.11
63493;BME280;49638;47.526;10.028;2022-07-10T05:21:13;92217.16;;;14.84;78.98
63493;BME280;49638;47.526;10.028;2022-07-10T05:24:13;92213.69;;;14.84;79.43
63493;BME280;49638;47.526;10.028;2022-07-10T05:27:14;92213.69;;;14.84;79.32
63493;BME280;49638;47.526;10.028;2022-07-10T05:30:16;92217.66;;;14.81;79.35
63493;BME280;49638;47.526;10.028;2022-07-10T05:33:16;92225.38;;;14.83;79.60
63493;BME280;49638;47.526;10.028;2022-07-10T05:36:17;92227.25;;;14.82;79.51
63493;BME280;49638;47.526;10.028;2022-07-10T05:39:17;92214.97;;;14.76;79.39
63493;BME280;49638;47.526;10.028;2022-07-10T05:42:17;92230.16;;;14.81;79.38
63493;BME280;49638;47.526;10.028;2022-07-10T05:45:18;92221.88;;;14.77;79.67
63493;BME280;49638;47.526;10.028;2022-07-10T05:48:18;92229.13;;;14.82;79.81
63493;BME280;49638;47.526;10.028;2022-07-10T05:51:19;92229.84;;;14.77;79.91
63493;BME280;49638;47.526;10.028;2022-07-10T05:54:19;92230.69;;;14.78;79.88
63493;BME280;49638;47.526;10.028;2022-07-10T05:57:20;92244.00;;;14.78;79.64
63493;BME280;49638;47.526;10.028;2022-07-10T06:00:20;92244.00;;;14.78;79.65
63493;BME280;49638;47.526;10.028;2022-07-10T06:03:20;92242.38;;;14.77;79.80
63493;BME280;49638;47.526;10.028;2022-07-10T06:06:21;92240.69;;;14.65;79.68
63493;BME280;49638;47.526;10.028;2022-07-10T06:09:21;92236.97;;;14.66;79.91
63493;BME280;49638;47.526;10.028;2022-07-10T06:12:22;92250.03;;;14.68;80.36
63493;BME280;49638;47.526;10.028;2022-07-10T06:15:22;92247.31;;;14.63;80.35
63493;BME280;49638;47.526;10.028;2022-07-10T06:18:22;92251.28;;;14.60;80.54
63493;BME280;49638;47.526;10.028;2022-07-10T06:21:23;92251.81;;;14.57;80.99
63493;BME280;49638;47.526;10.028;2022-07-10T06:24:23;92249.66;;;14.54;81.29
63493;BME280;49638;47.526;10.028;2022-07-10T06:27:23;92257.09;;;14.52;81.52
63493;BME280;49638;47.526;10.028;2022-07-10T06:30:23;92261.84;;;14.50;82.06
63493;BME280;49638;47.526;10.028;2022-07-10T06:33:24;92262.03;;;14.43;82.66
63493;BME280;49638;47.526;10.028;2022-07-10T06:36:24;92271.31;;;14.41;83.02
63493;BME280;49638;47.526;10.028;2022-07-10T06:39:24;92261.19;;;14.38;83.33
63493;BME280;49638;47.526;10.028;2022-07-10T06:42:25;92258.03;;;14.41;83.44
63493;BME280;49638;47.526;10.028;2022-07-10T06:45:25;92260.47;;;14.48;83.55
63493;BME280;49638;47.526;10.028;2022-07-10T06:48:26;92267.72;;;14.52;83.43
63493;BME280;49638;47.526;10.028;2022-07-10T06:51:27;92266.13;;;14.51;84.00
63493;BME280;49638;47.526;10.028;2022-07-10T06:54:27;92262.47;;;14.57;84.36
63493;BME280;49638;47.526;10.028;2022-07-10T06:57:28;92272.06;;;14.63;83.81
63493;BME280;49638;47.526;10.028;2022-07-10T07:00:28;92267.81;;;14.62;83.92
63493;BME280;49638;47.526;10.028;2022-07-10T07:03:28;92256.94;;;14.64;83.42
63493;BME280;49638;47.526;10.028;2022-07-10T07:06:29;92275.66;;;14.79;83.83
63493;BME280;49638;47.526;10.028;2022-07-10T07:09:29;92279.41;;;14.83;83.37
63493;BME280;49638;47.526;10.028;2022-07-10T07:12:30;92275.16;;;14.87;83.71
63493;BME280;49638;47.526;10.028;2022-07-10T07:15:30;92277.53;;;14.84;83.23
63493;BME280;49638;47.526;10.028;2022-07-10T07:18:30;92274.88;;;14.84;83.03
63493;BME280;49638;47.526;10.028;2022-07-10T07:21:35;92276.00;;;14.88;83.24
63493;BME280;49638;47.526;10.028;2022-07-10T07:24:54;92276.00;;;14.88;83.08
63493;BME280;49638;47.526;10.028;2022-07-10T07:27:54;92282.91;;;14.89;83.26
63493;BME280;49638;47.526;10.028;2022-07-10T07:30:54;92285.31;;;14.90;83.14
63493;BME280;49638;47.526;10.028;2022-07-10T07:33:55;92282.91;;;14.89;83.15
63493;BME280;49638;47.526;10.028;2022-07-10T07:36:55;92276.44;;;14.80;83.21
63493;BME280;49638;47.526;10.028;2022-07-10T07:39:55;92293.50;;;14.84;83.31
63493;BME280;49638;47.526;10.028;2022-07-10T07:42:55;92280.72;;;14.81;83.59
63493;BME280;49638;47.526;10.028;2022-07-10T07:45:56;92291.13;;;14.82;83.38
63493;BME280;49638;47.526;10.028;2022-07-10T07:48:57;92287.88;;;14.80;83.78
63493;BME280;49638;47.526;10.028;2022-07-10T07:51:57;92279.38;;;14.78;84.15
63493;BME280;49638;47.526;10.028;2022-07-10T07:54:57;92278.91;;;14.86;84.36
63493;BME280;49638;47.526;10.028;2022-07-10T07:57:58;92288.25;;;14.94;84.61
63493;BME280;49638;47.526;10.028;2022-07-10T08:00:58;92285.88;;;14.93;84.65
63493;BME280;49638;47.526;10.028;2022-07-10T08:03:58;92284.56;;;14.95;84.74
63493;BME280;49638;47.526;10.028;2022-07-10T08:06:59;92293.66;;;15.04;84.91
63493;BME280;49638;47.526;10.028;2022-07-10T08:10:02;92279.84;;;15.07;85.13
63493;BME280;49638;47.526;10.028;2022-07-10T08:13:03;92283.34;;;15.13;84.95
63493;BME280;49638;47.526;10.028;2022-07-10T08:16:04;92281.25;;;15.20;84.93
63493;BME280;49638;47.526;10.028;2022-07-10T08:19:05;92274.34;;;15.24;84.94
63493;BME280;49638;47.526;10.028;2022-07-10T08:22:05;92285.56;;;15.31;84.58
63493;BME280;49638;47.526;10.028;2022-07-10T08:25:06;92282.66;;;15.33;84.24
63493;BME280;49638;47.526;10.028;2022-07-10T08:28:07;92274.13;;;15.31;84.30
63493;BME280;49638;47.526;10.028;2022-07-10T08:31:08;92288.56;;;15.40;84.65
63493;BME280;49638;47.526;10.028;2022-07-10T08:34:08;92290.72;;;15.43;84.90
63493;BME280;49638;47.526;10.028;2022-07-10T08:37:08;92286.47;;;15.42;84.62
63493;BME280;49638;47.526;10.028;2022-07-10T08:40:10;92293.09;;;15.40;84.72
63493;BME280;49638;47.526;10.028;2022-07-10T08:43:11;92292.00;;;15.35;84.53
63493;BME280;49638;47.526;10.028;2022-07-10T08:46:11;92296.22;;;15.31;83.99
63493;BME280;49638;47.526;10.028;2022-07-10T08:49:12;92293.78;;;15.20;83.35
63493;BME280;49638;47.526;10.028;2022-07-10T08:52:43;92281.47;;;15.08;84.54
63493;BME280;49638;47.526;10.028;2022-07-10T08:55:44;92298.22;;;15.09;83.34
63493;BME280;49638;47.526;10.028;2022-07-10T08:58:45;92291.00;;;15.04;83.18
63493;BME280;49638;47.526;10.028;2022-07-10T09:01:47;92297.94;;;15.05;83.56
63493;BME280;49638;47.526;10.028;2022-07-10T09:04:48;92285.38;;;15.01;83.75
63493;BME280;49638;47.526;10.028;2022-07-10T09:07:48;92299.03;;;15.09;84.14
63493;BME280;49638;47.526;10.028;2022-07-10T09:10:48;92304.66;;;15.18;84.33
63493;BME280;49638;47.526;10.028;2022-07-10T09:14:36;92300.50;;;15.32;85.23
63493;BME280;49638;47.526;10.028;2022-07-10T09:17:18;92307.81;;;15.52;83.87
63493;BME280;49638;47.526;10.028;2022-07-10T09:20:47;92306.25;;;15.61;85.04
63493;BME280;49638;47.526;10.028;2022-07-10T09:23:48;92309.00;;;15.67;82.79
63493;BME280;49638;47.526;10.028;2022-07-10T09:27:01;92307.97;;;15.73;83.35
63493;BME280;49638;47.526;10.028;2022-07-10T09:30:03;92305.31;;;15.78;82.24
63493;BME280;49638;47.526;10.028;2022-07-10T09:33:24;92305.34;;;15.83;81.77
63493;BME280;49638;47.526;10.028;2022-07-10T09:36:29;92304.81;;;15.91;81.91
63493;BME280;49638;47.526;10.028;2022-07-10T09:39:29;92297.41;;;16.03;81.81
63493;BME280;49638;47.526;10.028;2022-07-10T09:42:31;92303.06;;;16.17;81.95
63493;BME280;49638;47.526;10.028;2022-07-10T09:45:33;92298.00;;;16.21;81.37
63493;BME280;49638;47.526;10.028;2022-07-10T09:48:33;92302.56;;;16.30;81.31
63493;BME280;49638;47.526;10.028;2022-07-10T09:54:38;92297.00;;;16.47;80.10
63493;BME280;49638;47.526;10.028;2022-07-10T09:57:38;92295.41;;;16.51;79.49
63493;BME280;49638;47.526;10.028;2022-07-10T10:00:40;92297.50;;;16.49;79.05
63493;BME280;49638;47.526;10.028;2022-07-10T10:03:43;92296.44;;;16.50;78.60
63493;BME280;49638;47.526;10.028;2022-07-10T10:06:51;92298.59;;;16.48;78.33
63493;BME280;49638;47.526;10.028;2022-07-10T10:09:52;92300.72;;;16.46;79.05
63493;BME280;49638;47.526;10.028;2022-07-10T10:12:58;92301.50;;;16.42;77.92
63493;BME280;49638;47.526;10.028;2022-07-10T10:16:00;92297.50;;;16.34;78.38
63493;BME280;49638;47.526;10.028;2022-07-10T10:19:02;92303.88;;;16.33;78.02
63493;BME280;49638;47.526;10.028;2022-07-10T10:22:22;92285.72;;;16.30;77.77
63493;BME280;49638;47.526;10.028;2022-07-10T10:25:26;92301.75;;;16.40;77.08
63493;BME280;49638;47.526;10.028;2022-07-10T10:28:26;92303.66;;;16.45;75.43
63493;BME280;49638;47.526;10.028;2022-07-10T10:31:27;92287.63;;;16.40;76.89
63493;BME280;49638;47.526;10.028;2022-07-10T10:34:40;92301.78;;;16.50;75.29
63493;BME280;49638;47.526;10.028;2022-07-10T10:37:41;92288.16;;;16.47;76.47
63493;BME280;49638;47.526;10.028;2022-07-10T10:40:44;92292.44;;;16.53;76.32
63493;BME280;49638;47.526;10.028;2022-07-10T10:47:16;92290.03;;;16.56;76.18
63493;BME280;49638;47.526;10.028;2022-07-10T10:50:36;92271.38;;;16.51;74.56
63493;BME280;49638;47.526;10.028;2022-07-10T10:53:38;92279.94;;;16.69;75.66
63493;BME280;49638;47.526;10.028;2022-07-10T10:56:38;92266.31;;;16.70;75.62
63493;BME280;49638;47.526;10.028;2022-07-10T10:59:45;92272.22;;;16.83;73.97
63493;BME280;49638;47.526;10.028;2022-07-10T11:02:45;92258.84;;;16.88;75.21
63493;BME280;49638;47.526;10.028;2022-07-10T11:05:47;92253.78;;;16.91;75.01
63493;BME280;49638;47.526;10.028;2022-07-10T11:08:47;92247.13;;;16.94;74.92
63493;BME280;49638;47.526;10.028;2022-07-10T11:12:01;92250.59;;;16.99;74.41
63493;BME280;49638;47.526;10.028;2022-07-10T11:15:02;92253.25;;;17.05;74.88
63493;BME280;49638;47.526;10.028;2022-07-10T11:18:09;92243.63;;;17.03;74.28
63493;BME280;49638;47.526;10.028;2022-07-10T11:21:23;92254.84;;;17.16;73.01
63493;BME280;49638;47.526;10.028;2022-07-10T11:24:33;92247.88;;;17.15;71.63
63493;BME280;49638;47.526;10.028;2022-07-10T11:28:07;92256.97;;;17.14;69.62
63493;BME280;49638;47.526;10.028;2022-07-10T11:31:08;92250.84;;;17.13;73.11
63493;BME280;49638;47.526;10.028;2022-07-10T11:34:09;92245.22;;;17.15;72.99
63493;BME280;49638;47.526;10.028;2022-07-10T11:37:16;92253.19;;;17.25;71.44
63493;BME280;49638;47.526;10.028;2022-07-10T11:40:16;92250.00;;;17.28;72.46
63493;BME280;49638;47.526;10.028;2022-07-10T11:43:19;92249.72;;;17.35;72.99
63493;BME280;49638;47.526;10.028;2022-07-10T11:46:25;92244.13;;;17.36;72.73
63493;BME280;49638;47.526;10.028;2022-07-10T11:49:27;92249.44;;;17.46;72.55
63493;BME280;49638;47.526;10.028;2022-07-10T11:52:27;92244.06;;;17.52;71.99
63493;BME280;49638;47.526;10.028;2022-07-10T11:55:27;92233.63;;;17.55;71.63
63493;BME280;49638;47.526;10.028;2022-07-10T11:58:29;92249.63;;;17.65;71.17
63493;BME280;49638;47.526;10.028;2022-07-10T12:01:34;92243.47;;;17.70;70.70
63493;BME280;49638;47.526;10.028;2022-07-10T12:04:34;92238.09;;;17.75;70.86
63493;BME280;49638;47.526;10.028;2022-07-10T12:07:35;92225.81;;;17.79;70.38
63493;BME280;49638;47.526;10.028;2022-07-10T12:10:35;92238.63;;;17.82;70.51
63493;BME280;49638;47.526;10.028;2022-07-10T12:13:35;92239.72;;;17.81;70.30
63493;BME280;49638;47.526;10.028;2022-07-10T12:16:36;92222.63;;;17.77;69.72
63493;BME280;49638;47.526;10.028;2022-07-10T12:19:38;92227.19;;;17.77;68.80
63493;BME280;49638;47.526;10.028;2022-07-10T12:22:38;92228.47;;;17.74;68.62
63493;BME280;49638;47.526;10.028;2022-07-10T12:25:39;92221.56;;;17.68;68.51
63493;BME280;49638;47.526;10.028;2022-07-10T12:28:55;92227.19;;;17.77;67.33
63493;BME280;49638;47.526;10.028;2022-07-10T12:31:57;92227.69;;;17.84;68.47
63493;BME280;49638;47.526;10.028;2022-07-10T12:34:58;92226.28;;;17.91;68.25
63493;BME280;49638;47.526;10.028;2022-07-10T12:37:59;92220.66;;;17.98;67.88
63493;BME280;49638;47.526;10.028;2022-07-10T12:41:10;92221.44;;;18.04;65.72
63493;BME280;49638;47.526;10.028;2022-07-10T12:44:10;92219.19;;;18.16;67.05
63493;BME280;49638;47.526;10.028;2022-07-10T12:47:12;92218.66;;;18.19;66.38
63493;BME280;49638;47.526;10.028;2022-07-10T12:50:13;92209.22;;;18.27;66.26
63493;BME280;49638;47.526;10.028;2022-07-10T12:53:14;92219.06;;;18.36;66.26
63493;BME280;49638;47.526;10.028;2022-07-10T12:56:35;92213.16;;;18.39;63.96
63493;BME280;49638;47.526;10.028;2022-07-10T12:59:36;92219.59;;;18.38;66.28
63493;BME280;49638;47.526;10.028;2022-07-10T13:02:37;92225.56;;;18.25;66.63
63493;BME280;49638;47.526;10.028;2022-07-10T13:05:41;92225.59;;;18.20;65.26
63493;BME280;49638;47.526;10.028;2022-07-10T13:08:45;92224.31;;;18.12;66.27
63493;BME280;49638;47.526;10.028;2022-07-10T13:11:46;92213.66;;;18.02;66.44
63493;BME280;49638;47.526;10.028;2022-07-10T13:14:47;92220.34;;;18.00;66.61
63493;BME280;49638;47.526;10.028;2022-07-10T13:17:48;92234.28;;;18.02;66.32
63493;BME280;49638;47.526;10.028;2022-07-10T13:20:50;92238.03;;;18.01;66.57
63493;BME280;49638;47.526;10.028;2022-07-10T13:23:51;92234.53;;;18.00;66.21
63493;BME280;49638;47.526;10.028;2022-07-10T13:26:53;92239.63;;;18.02;65.41
63493;BME280;49638;47.526;10.028;2022-07-10T13:29:55;92236.16;;;18.01;65.83
63493;BME280;49638;47.526;10.028;2022-07-10T13:32:56;92230.00;;;18.01;66.17
63493;BME280;49638;47.526;10.028;2022-07-10T13:35:59;92239.63;;;18.02;66.16
63493;BME280;49638;47.526;10.028;2022-07-10T13:39:00;92238.28;;;18.04;66.38
63493;BME280;49638;47.526;10.028;2022-07-10T13:42:00;92238.75;;;18.11;66.52
63493;BME280;49638;47.526;10.028;2022-07-10T13:45:00;92233.63;;;18.20;66.18
63493;BME280;49638;47.526;10.028;2022-07-10T13:48:01;92235.75;;;18.23;66.19
63493;BME280;49638;47.526;10.028;2022-07-10T13:51:01;92227.47;;;18.25;66.29
63493;BME280;49638;47.526;10.028;2022-07-10T13:54:02;92218.66;;;18.19;66.03
63493;BME280;49638;47.526;10.028;2022-07-10T13:57:03;92219.97;;;18.22;66.30
63493;BME280;49638;47.526;10.028;2022-07-10T14:00:04;92228.25;;;18.25;66.34
63493;BME280;49638;47.526;10.028;2022-07-10T14:03:05;92219.13;;;18.26;66.53
63493;BME280;49638;47.526;10.028;2022-07-10T14:06:06;92227.41;;;18.35;66.03
63493;BME280;49638;47.526;10.028;2022-07-10T14:09:06;92227.16;;;18.31;65.56
63493;BME280;49638;47.526;10.028;2022-07-10T14:12:07;92229.28;;;18.34;65.57
63493;BME280;49638;47.526;10.028;2022-07-10T14:15:08;92227.88;;;18.42;65.97
63493;BME280;49638;47.526;10.028;2022-07-10T14:18:08;92226.53;;;18.44;66.42
63493;BME280;49638;47.526;10.028;2022-07-10T14:21:10;92230.97;;;18.54;66.10
63493;BME280;49638;47.526;10.028;2022-07-10T14:24:11;92234.50;;;18.55;65.79
63493;BME280;49638;47.526;10.028;2022-07-10T14:27:11;92225.44;;;18.46;65.72
63493;BME280;49638;47.526;10.028;2022-07-10T14:30:11;92232.38;;;18.47;65.42
63493;BME280;49638;47.526;10.028;2022-07-10T14:33:12;92222.78;;;18.46;65.45
63493;BME280;49638;47.526;10.028;2022-07-10T14:36:12;92222.22;;;18.49;65.79
63493;BME280;49638;47.526;10.028;2022-07-10T14:39:13;92231.84;;;18.50;65.56
63493;BME280;49638;47.526;10.028;2022-07-10T14:42:13;92226.78;;;18.48;65.20
63493;BME280;49638;47.526;10.028;2022-07-10T14:45:13;92222.22;;;18.49;65.47
63493;BME280;49638;47.526;10.028;2022-07-10T14:48:13;92215.25;;;18.48;65.17
63493;BME280;49638;47.526;10.028;2022-07-10T14:51:14;92221.38;;;18.53;65.60
63493;BME280;49638;47.526;10.028;2022-07-10T14:54:15;92222.13;;;18.59;65.54
63493;BME280;49638;47.526;10.028;2022-07-10T14:57:15;92224.75;;;18.64;65.53
63493;BME280;49638;47.526;10.028;2022-07-10T15:00:15;92224.50;;;18.65;65.10
63493;BME280;49638;47.526;10.028;2022-07-10T15:03:18;92226.38;;;18.65;65.29
63493;BME280;49638;47.526;10.028;2022-07-10T15:06:18;92222.63;;;18.66;64.75
63493;BME280;49638;47.526;10.028;2022-07-10T15:09:18;92222.09;;;18.64;64.57
63493;BME280;49638;47.526;10.028;2022-07-10T15:12:19;92218.66;;;18.58;64.31
63493;BME280;49638;47.526;10.028;2022-07-10T15:15:20;92222.13;;;18.59;64.31
63493;BME280;49638;47.526;10.028;2022-07-10T15:18:21;92222.13;;;18.59;64.31
63493;BME280;49638;47.526;10.028;2022-07-10T15:21:21;92218.44;;;18.55;64.49
63493;BME280;49638;47.526;10.028;2022-07-10T15:24:22;92216.25;;;18.57;64.11
63493;BME280;49638;47.526;10.028;2022-07-10T15:27:23;92226.47;;;18.50;63.89
63493;BME280;49638;47.526;10.028;2022-07-10T15:30:23;92217.16;;;18.42;63.67
63493;BME280;49638;47.526;10.028;2022-07-10T15:33:23;92223.84;;;18.44;63.65
63493;BME280;49638;47.526;10.028;2022-07-10T15:36:24;92219.06;;;18.36;63.14
63493;BME280;49638;47.526;10.028;2022-07-10T15:39:24;92226.06;;;18.32;62.98
63493;BME280;49638;47.526;10.028;2022-07-10T15:42:24;92217.50;;;18.30;63.10
63493;BME280;49638;47.526;10.028;2022-07-10T15:45:25;92226.34;;;18.31;62.97
63493;BME280;49638;47.526;10.028;2022-07-10T15:48:25;92220.22;;;18.25;63.08
63493;BME280;49638;47.526;10.028;2022-07-10T15:51:26;92232.75;;;18.35;63.10
63493;BME280;49638;47.526;10.028;2022-07-10T15:54:27;92234.56;;;18.39;62.87
63493;BME280;49638;47.526;10.028;2022-07-10T15:57:28;92221.19;;;18.39;62.89